createdAt,value
2022-11-04T00:00:48.999Z,75.97
2022-11-04T00:03:15.965Z,76.23
2022-11-04T00:06:01.972Z,75.88
2022-11-04T00:08:28.962Z,76.47
2022-11-04T00:11:15.309Z,76.75
2022-11-04T00:13:42.610Z,77.13
2022-11-04T00:16:28.880Z,76.66
2022-11-04T00:18:56.203Z,76.44
2022-11-04T00:21:42.340Z,76.74
2022-11-04T00:24:37.694Z,76.38
2022-11-04T00:27:23.449Z,76.56
2022-11-04T00:29:50.356Z,76.48
2022-11-04T00:32:35.703Z,76.64
2022-11-04T00:35:02.761Z,76.87
2022-11-04T00:37:29.682Z,76.99
2022-11-04T00:39:56.619Z,76.24
2022-11-04T00:42:23.571Z,76.61
2022-11-04T00:44:50.459Z,76.45
2022-11-04T00:47:17.422Z,75.74
2022-11-04T00:49:44.311Z,76.23
2022-11-04T00:52:11.231Z,76.29
2022-11-04T00:54:38.164Z,75.89
2022-11-04T00:57:05.340Z,76.02
2022-11-04T00:59:32.185Z,76.21
2022-11-04T01:01:59.465Z,76.33
2022-11-04T01:04:26.548Z,76.14
2022-11-04T01:06:53.535Z,76.60
2022-11-04T01:09:20.596Z,76.39
2022-11-04T01:11:47.557Z,76.79
2022-11-04T01:14:15.468Z,76.63
2022-11-04T01:16:42.759Z,76.21
2022-11-04T01:19:10.375Z,75.77
2022-11-04T01:21:37.338Z,76.08
2022-11-04T01:24:04.624Z,76.11
2022-11-04T01:26:32.075Z,75.82
2022-11-04T01:29:00.435Z,76.97
2022-11-04T01:31:29.849Z,76.99
2022-11-04T01:33:58.303Z,76.69
2022-11-04T01:36:27.225Z,77.31
2022-11-04T01:38:57.223Z,76.89
2022-11-04T01:41:27.690Z,76.47
2022-11-04T01:44:03.507Z,76.59
2022-11-04T01:46:47.749Z,76.26
2022-11-04T01:49:29.474Z,76.12
2022-11-04T01:52:14.552Z,76.13
2022-11-04T01:54:43.522Z,76.25
2022-11-04T01:57:15.199Z,75.76
2022-11-04T01:59:42.833Z,75.97
2022-11-04T02:02:10.007Z,75.75
2022-11-04T02:04:39.441Z,75.90
2022-11-04T02:07:09.709Z,75.08
2022-11-04T02:09:38.728Z,75.75
2022-11-04T02:12:24.938Z,75.99
2022-11-04T02:14:53.611Z,76.13
2022-11-04T02:17:20.522Z,75.96
2022-11-04T02:20:06.015Z,76.12
2022-11-04T02:23:06.059Z,76.30
2022-11-04T02:25:39.269Z,76.23
2022-11-04T02:28:39.486Z,75.84
2022-11-04T02:31:31.486Z,76.11
2022-11-04T02:34:10.985Z,75.75
2022-11-04T02:36:51.910Z,75.83
2022-11-04T02:39:21.770Z,75.72
2022-11-04T02:42:03.037Z,75.32
2022-11-04T02:44:41.129Z,75.15
2022-11-04T02:47:14.935Z,75.14
2022-11-04T02:49:47.279Z,74.79
2022-11-04T02:52:31.619Z,74.91
2022-11-04T02:55:06.869Z,74.84
2022-11-04T02:57:37.862Z,74.31
2022-11-04T03:00:11.098Z,74.71
2022-11-04T03:02:46.131Z,74.60
2022-11-04T03:05:17.548Z,74.50
2022-11-04T03:07:47.181Z,74.56
2022-11-04T03:10:24.619Z,74.32
2022-11-04T03:13:11.953Z,74.12
2022-11-04T03:15:42.690Z,74.12
2022-11-04T03:18:34.483Z,74.19
2022-11-04T03:21:05.485Z,74.09
2022-11-04T03:23:33.149Z,73.94
2022-11-04T03:26:19.200Z,73.46
2022-11-04T03:29:07.689Z,73.87
2022-11-04T03:31:55.532Z,73.75
2022-11-04T03:34:22.569Z,73.71
2022-11-04T03:36:49.529Z,73.63
2022-11-04T03:39:16.783Z,72.93
2022-11-04T03:41:55.899Z,72.86
2022-11-04T03:44:24.031Z,73.03
2022-11-04T03:46:54.475Z,73.69
2022-11-04T03:49:22.958Z,73.61
2022-11-04T03:51:51.634Z,73.73
2022-11-04T03:54:19.601Z,73.58
2022-11-04T03:56:49.560Z,73.77
2022-11-04T03:59:31.466Z,73.73
2022-11-04T04:02:14.181Z,73.43
2022-11-04T04:04:49.541Z,73.30
2022-11-04T04:07:44.749Z,73.50
2022-11-04T04:11:04.131Z,73.49
2022-11-04T04:13:37.241Z,73.27
2022-11-04T04:16:30.143Z,73.75
2022-11-04T04:19:14.679Z,73.30
2022-11-04T04:21:51.714Z,73.25
2022-11-04T04:24:40.772Z,73.14
2022-11-04T04:27:26.479Z,73.03
2022-11-04T04:29:54.122Z,72.75
2022-11-04T04:32:24.316Z,73.03
2022-11-04T04:34:51.295Z,72.59
2022-11-04T04:37:24.477Z,72.70
2022-11-04T04:40:12.041Z,73.03
2022-11-04T04:43:17.980Z,72.84
2022-11-04T04:45:51.439Z,72.58
2022-11-04T04:48:18.715Z,72.46
2022-11-04T04:50:49.310Z,72.53
2022-11-04T04:53:16.353Z,72.55
2022-11-04T04:55:43.494Z,72.47
2022-11-04T04:58:10.598Z,71.99
2022-11-04T05:00:37.529Z,72.17
2022-11-04T05:03:04.609Z,72.37
2022-11-04T05:05:31.647Z,72.42
2022-11-04T05:08:09.065Z,72.32
2022-11-04T05:10:36.315Z,72.08
2022-11-04T05:13:21.735Z,72.07
2022-11-04T05:15:48.749Z,72.25
2022-11-04T05:18:15.706Z,71.74
2022-11-04T05:20:42.700Z,72.22
2022-11-04T05:23:12.359Z,71.86
2022-11-04T05:25:40.467Z,72.29
2022-11-04T05:28:08.927Z,71.98
2022-11-04T05:30:37.022Z,71.97
2022-11-04T05:33:05.171Z,72.19
2022-11-04T05:35:33.654Z,71.87
2022-11-04T05:38:00.766Z,72.07
2022-11-04T05:40:27.776Z,71.79
2022-11-04T05:42:57.489Z,71.02
2022-11-04T05:45:24.462Z,71.67
2022-11-04T05:47:59.123Z,71.60
2022-11-04T05:50:26.695Z,70.66
2022-11-04T05:52:53.719Z,71.63
2022-11-04T05:55:21.091Z,71.53
2022-11-04T05:57:48.085Z,71.26
2022-11-04T06:00:15.466Z,71.63
2022-11-04T06:02:42.512Z,71.79
2022-11-04T06:05:10.493Z,71.51
2022-11-04T06:07:37.673Z,71.26
2022-11-04T06:10:05.044Z,71.66
2022-11-04T06:12:32.082Z,71.04
2022-11-04T06:14:58.986Z,70.78
2022-11-04T06:17:25.941Z,70.98
2022-11-04T06:19:52.960Z,70.61
2022-11-04T06:22:20.482Z,71.13
2022-11-04T06:24:47.589Z,70.87
2022-11-04T06:27:14.685Z,71.09
2022-11-04T06:29:42.173Z,70.54
2022-11-04T06:32:14.945Z,70.57
2022-11-04T06:34:42.162Z,70.57
2022-11-04T06:37:10.346Z,70.44
2022-11-04T06:39:37.765Z,70.15
2022-11-04T06:42:06.043Z,70.96
2022-11-04T06:44:34.793Z,71.15
2022-11-04T06:47:02.223Z,70.74
2022-11-04T06:49:29.183Z,70.15
2022-11-04T06:51:56.251Z,70.85
2022-11-04T06:54:23.205Z,70.47
2022-11-04T06:56:50.209Z,70.57
2022-11-04T06:59:20.118Z,70.45
2022-11-04T07:01:47.888Z,70.57
2022-11-04T07:04:14.955Z,69.99
2022-11-04T07:06:44.420Z,70.33
2022-11-04T07:09:14.548Z,69.97
2022-11-04T07:11:43.635Z,70.04
2022-11-04T07:14:11.548Z,69.27
2022-11-04T07:16:38.886Z,69.48
2022-11-04T07:19:06.610Z,69.50
2022-11-04T07:21:33.550Z,69.35
2022-11-04T07:24:01.567Z,68.97
2022-11-04T07:26:28.575Z,69.08
2022-11-04T07:28:55.546Z,69.12
2022-11-04T07:31:22.662Z,68.77
2022-11-04T07:33:51.704Z,68.72
2022-11-04T07:36:19.693Z,68.77
2022-11-04T07:38:47.444Z,68.88
2022-11-04T07:41:15.304Z,68.54
2022-11-04T07:43:42.504Z,68.63
2022-11-04T07:46:13.137Z,68.51
2022-11-04T07:48:40.405Z,68.24
2022-11-04T07:51:11.262Z,67.95
2022-11-04T07:53:38.204Z,68.61
2022-11-04T07:56:07.522Z,68.32
2022-11-04T07:58:35.369Z,68.33
2022-11-04T08:01:05.971Z,68.18
2022-11-04T08:03:34.472Z,67.75
2022-11-04T08:06:03.885Z,67.94
2022-11-04T08:08:31.364Z,68.07
2022-11-04T08:11:04.553Z,68.22
2022-11-04T08:13:33.174Z,68.49
2022-11-04T08:16:10.296Z,67.30
2022-11-04T08:18:37.244Z,68.21
2022-11-04T08:21:05.177Z,67.75
2022-11-04T08:23:33.314Z,67.92
2022-11-04T08:26:00.585Z,67.59
2022-11-04T08:28:29.886Z,67.67
2022-11-04T08:31:14.162Z,67.20
2022-11-04T08:33:42.453Z,67.40
2022-11-04T08:36:16.067Z,67.34
2022-11-04T08:38:43.312Z,67.31
2022-11-04T08:41:11.484Z,67.35
2022-11-04T08:43:38.757Z,66.81
2022-11-04T08:46:08.687Z,67.20
2022-11-04T08:48:37.162Z,67.21
2022-11-04T08:51:06.247Z,67.53
2022-11-04T08:53:33.190Z,67.18
2022-11-04T08:56:00.142Z,67.37
2022-11-04T08:58:27.142Z,66.65
2022-11-04T09:00:54.105Z,66.74
2022-11-04T09:03:21.413Z,66.56
2022-11-04T09:05:49.447Z,66.39
2022-11-04T09:08:18.334Z,66.43
2022-11-04T09:10:47.129Z,66.71
2022-11-04T09:13:16.065Z,66.70
2022-11-04T09:15:44.255Z,66.86
2022-11-04T09:18:11.470Z,66.29
2022-11-04T09:20:42.517Z,66.12
2022-11-04T09:23:10.187Z,65.33
2022-11-04T09:25:37.626Z,65.18
2022-11-04T09:28:05.013Z,65.15
2022-11-04T09:30:32.438Z,65.43
2022-11-04T09:32:59.673Z,65.61
2022-11-04T09:35:27.863Z,65.09
2022-11-04T09:37:55.304Z,64.22
2022-11-04T09:40:25.593Z,64.68
2022-11-04T09:43:23.535Z,64.72
2022-11-04T09:45:50.719Z,64.68
2022-11-04T09:48:38.428Z,64.07
2022-11-04T09:51:12.906Z,64.38
2022-11-04T09:53:49.737Z,64.10
2022-11-04T09:56:25.827Z,64.31
2022-11-04T09:58:52.801Z,62.88
2022-11-04T10:01:19.907Z,63.04
2022-11-04T10:04:12.774Z,62.69
2022-11-04T10:06:53.781Z,62.28
2022-11-04T10:09:32.132Z,62.71
2022-11-04T10:12:18.088Z,62.54
2022-11-04T10:14:51.283Z,62.22
2022-11-04T10:17:49.311Z,61.76
2022-11-04T10:20:32.017Z,60.62
2022-11-04T10:23:16.890Z,61.28
2022-11-04T10:25:53.989Z,60.71
2022-11-04T10:28:25.888Z,59.98
2022-11-04T10:30:53.275Z,60.74
2022-11-04T10:33:34.767Z,60.48
2022-11-04T10:36:06.632Z,59.90
2022-11-04T10:38:47.039Z,60.10
2022-11-04T10:41:20.096Z,60.53
2022-11-04T10:43:48.135Z,59.84
2022-11-04T10:46:38.724Z,59.70
2022-11-04T10:49:08.851Z,60.61
2022-11-04T10:51:35.781Z,60.35
2022-11-04T10:54:03.689Z,59.45
2022-11-04T10:56:45.597Z,59.33
2022-11-04T10:59:24.932Z,59.39
2022-11-04T11:02:10.462Z,59.37
2022-11-04T11:04:39.041Z,59.23
2022-11-04T11:07:09.453Z,58.22
2022-11-04T11:09:42.173Z,58.97
2022-11-04T11:12:48.778Z,58.84
2022-11-04T11:15:30.432Z,57.65
2022-11-04T11:18:22.647Z,57.82
2022-11-04T11:21:03.705Z,58.74
2022-11-04T11:23:42.792Z,58.01
2022-11-04T11:26:14.569Z,58.99
2022-11-04T11:28:47.818Z,58.14
2022-11-04T11:31:23.838Z,58.59
2022-11-04T11:33:59.908Z,57.64
2022-11-04T11:36:31.118Z,58.33
2022-11-04T11:39:06.495Z,57.99
2022-11-04T11:41:53.365Z,56.96
2022-11-04T11:44:37.420Z,57.76
2022-11-04T11:47:19.374Z,57.67
2022-11-04T11:49:46.369Z,57.58
2022-11-04T11:52:46.640Z,57.58
2022-11-04T11:55:23.908Z,58.23
2022-11-04T12:01:32.480Z,57.03
2022-11-04T12:10:00.707Z,55.94
2022-11-04T12:12:39.883Z,56.07
2022-11-04T12:15:41.243Z,55.02
2022-11-04T12:18:32.363Z,53.83
2022-11-04T12:21:06.661Z,53.83
2022-11-04T12:24:04.180Z,53.91
2022-11-04T12:26:37.672Z,54.64
2022-11-04T12:29:31.803Z,54.82
2022-11-04T12:32:19.002Z,56.03
2022-11-04T12:35:04.284Z,55.40
2022-11-04T12:37:50.074Z,55.63
2022-11-04T12:40:17.013Z,55.53
2022-11-04T12:42:51.988Z,54.96
2022-11-04T12:45:39.367Z,54.28
2022-11-04T12:48:19.657Z,55.41
2022-11-04T12:50:49.624Z,56.32
2022-11-04T12:53:47.863Z,56.13
2022-11-04T12:56:18.137Z,56.13
2022-11-04T12:59:09.554Z,56.46
2022-11-04T13:01:44.492Z,55.61
2022-11-04T13:04:17.689Z,55.61
2022-11-04T13:06:57.941Z,56.15
2022-11-04T13:09:37.032Z,56.28
2022-11-04T13:12:11.760Z,55.92
2022-11-04T13:14:51.768Z,56.27
2022-11-04T13:17:24.518Z,56.91
2022-11-04T13:19:54.253Z,56.30
2022-11-04T13:22:26.135Z,57.02
2022-11-04T13:24:59.682Z,56.92
2022-11-04T13:27:33.554Z,57.07
2022-11-04T13:30:46.959Z,56.47
2022-11-04T13:33:52.864Z,56.82
2022-11-04T13:36:40.642Z,57.65
2022-11-04T13:39:16.463Z,57.07
2022-11-04T13:42:01.669Z,57.70
2022-11-04T13:44:41.238Z,57.58
2022-11-04T13:47:21.953Z,58.21
2022-11-04T13:49:52.246Z,58.26
2022-11-04T13:52:19.548Z,58.86
2022-11-04T13:54:56.005Z,58.99
2022-11-04T13:57:54.697Z,58.57
2022-11-04T14:00:27.346Z,58.64
2022-11-04T14:03:16.301Z,59.19
2022-11-04T14:05:43.268Z,59.25
2022-11-04T14:08:14.003Z,59.09
2022-11-04T14:10:45.632Z,59.15
2022-11-04T14:13:27.751Z,59.36
2022-11-04T14:16:06.463Z,59.32
2022-11-04T14:18:36.096Z,59.84
2022-11-04T14:21:13.180Z,60.20
2022-11-04T14:23:42.759Z,59.54
2022-11-04T14:26:12.957Z,59.90
2022-11-04T14:28:44.312Z,60.04
2022-11-04T14:31:17.636Z,60.20
2022-11-04T14:33:53.947Z,59.87
2022-11-04T14:36:21.004Z,60.53
2022-11-04T14:39:12.555Z,60.65
2022-11-04T14:41:53.583Z,60.58
2022-11-04T14:44:31.585Z,60.99
2022-11-04T14:47:31.034Z,61.19
2022-11-04T14:50:01.077Z,60.87
2022-11-04T14:52:32.756Z,61.01
2022-11-04T14:55:08.323Z,61.24
2022-11-04T14:57:40.909Z,61.50
2022-11-04T15:00:30.791Z,61.84
2022-11-04T15:03:11.128Z,62.00
2022-11-04T15:05:52.738Z,62.08
2022-11-04T15:08:43.036Z,62.20
2022-11-04T15:11:39.102Z,62.51
2022-11-04T15:14:20.730Z,63.20
2022-11-04T15:16:51.328Z,63.27
2022-11-04T15:19:31.597Z,63.54
2022-11-04T15:22:01.544Z,63.94
2022-11-04T15:24:30.044Z,63.58
2022-11-04T15:27:02.931Z,63.42
2022-11-04T15:29:29.861Z,64.02
2022-11-04T15:32:04.724Z,63.90
2022-11-04T15:34:33.908Z,63.83
2022-11-04T15:37:05.991Z,63.76
2022-11-04T15:39:43.926Z,64.00
2022-11-04T15:42:40.841Z,64.03
2022-11-04T15:45:23.216Z,63.94
2022-11-04T15:48:10.204Z,63.92
2022-11-04T15:50:38.197Z,63.96
2022-11-04T15:53:10.767Z,63.48
2022-11-04T15:55:38.798Z,63.35
2022-11-04T15:58:06.208Z,63.48
2022-11-04T16:00:34.489Z,63.69
2022-11-04T16:03:01.713Z,63.83
2022-11-04T16:05:38.405Z,63.65
2022-11-04T16:08:23.774Z,63.96
2022-11-04T16:11:07.773Z,63.85
2022-11-04T16:13:34.823Z,63.76
2022-11-04T16:16:09.475Z,63.70
2022-11-04T16:18:52.572Z,63.64
2022-11-04T16:21:31.016Z,63.99
2022-11-04T16:24:02.668Z,63.92
2022-11-04T16:26:40.141Z,63.83
2022-11-04T16:29:10.888Z,64.02
2022-11-04T16:31:38.044Z,63.81
2022-11-04T16:34:12.141Z,63.37
2022-11-04T16:36:39.320Z,63.73
2022-11-04T16:39:09.889Z,63.82
2022-11-04T16:41:39.610Z,63.85
2022-11-04T16:44:19.090Z,63.58
2022-11-04T16:46:46.098Z,63.72
2022-11-04T16:49:18.857Z,63.67
2022-11-04T16:51:48.527Z,64.07
2022-11-04T16:54:15.571Z,63.97
2022-11-04T16:56:42.563Z,63.56
2022-11-04T16:59:12.066Z,63.53
2022-11-04T17:01:40.812Z,63.85
2022-11-04T17:04:08.162Z,63.82
2022-11-04T17:06:35.916Z,63.94
2022-11-04T17:09:03.719Z,64.08
2022-11-04T17:11:30.672Z,63.93
2022-11-04T17:13:57.670Z,63.85
2022-11-04T17:16:24.736Z,64.33
2022-11-04T17:18:51.673Z,63.90
2022-11-04T17:21:20.915Z,64.05
2022-11-04T17:23:48.148Z,64.22
2022-11-04T17:26:15.558Z,64.03
2022-11-04T17:28:42.544Z,64.40
2022-11-04T17:31:18.886Z,64.34
2022-11-04T17:33:45.835Z,64.67
2022-11-04T17:36:19.071Z,64.41
2022-11-04T17:38:47.201Z,64.63
2022-11-04T17:41:32.752Z,64.81
2022-11-04T17:44:02.882Z,64.52
2022-11-04T17:46:41.929Z,64.68
2022-11-04T17:49:14.416Z,64.93
2022-11-04T17:51:44.568Z,64.77
2022-11-04T17:54:12.179Z,65.28
2022-11-04T17:56:40.818Z,65.04
2022-11-04T17:59:09.053Z,65.40
2022-11-04T18:01:37.070Z,65.18
2022-11-04T18:04:04.307Z,65.35
2022-11-04T18:06:33.869Z,65.81
2022-11-04T18:09:01.303Z,65.86
2022-11-04T18:11:48.202Z,65.81
2022-11-04T18:14:18.541Z,65.90
2022-11-04T18:16:47.601Z,65.92
2022-11-04T18:19:15.868Z,65.85
2022-11-04T18:21:42.986Z,65.86
2022-11-04T18:24:10.293Z,65.97
2022-11-04T18:26:37.499Z,65.62
2022-11-04T18:29:05.101Z,65.75
2022-11-04T18:31:34.856Z,65.91
2022-11-04T18:34:03.979Z,66.09
2022-11-04T18:36:34.038Z,65.94
2022-11-04T18:39:01.732Z,65.49
2022-11-04T18:41:28.964Z,66.06
2022-11-04T18:43:56.026Z,65.72
2022-11-04T18:46:23.019Z,65.97
2022-11-04T18:48:53.589Z,66.49
2022-11-04T18:51:22.843Z,65.98
2022-11-04T18:53:50.990Z,66.15
2022-11-04T18:56:21.135Z,65.91
2022-11-04T18:58:48.979Z,65.96
2022-11-04T19:01:24.249Z,65.64
2022-11-04T19:03:51.788Z,66.15
2022-11-04T19:06:22.571Z,66.17
2022-11-04T19:08:50.900Z,65.99
2022-11-04T19:11:20.824Z,65.87
2022-11-04T19:14:02.831Z,65.81
2022-11-04T19:16:34.075Z,66.14
2022-11-04T19:19:04.277Z,65.76
2022-11-04T19:21:31.287Z,66.18
2022-11-04T19:24:02.262Z,65.91
2022-11-04T19:26:33.191Z,66.50
2022-11-04T19:29:01.363Z,66.10
2022-11-04T19:31:30.117Z,66.19
2022-11-04T19:34:04.741Z,65.90
2022-11-04T19:36:34.025Z,66.19
2022-11-04T19:39:01.500Z,65.92
2022-11-04T19:41:47.004Z,66.05
2022-11-04T19:44:16.739Z,66.09
2022-11-04T19:46:44.261Z,66.51
2022-11-04T19:49:12.792Z,65.87
2022-11-04T19:51:40.344Z,66.24
2022-11-04T19:54:07.443Z,66.38
2022-11-04T19:56:36.722Z,66.45
2022-11-04T19:59:07.980Z,66.54
2022-11-04T20:01:35.777Z,66.70
2022-11-04T20:04:04.560Z,66.97
2022-11-04T20:06:33.425Z,66.64
2022-11-04T20:09:05.942Z,66.91
2022-11-04T20:11:34.801Z,66.80
2022-11-04T20:14:07.486Z,66.85
2022-11-04T20:16:39.715Z,67.09
2022-11-04T20:19:07.584Z,66.83
2022-11-04T20:21:37.037Z,67.17
2022-11-04T20:24:07.504Z,66.71
2022-11-04T20:26:37.089Z,66.96
2022-11-04T20:29:06.143Z,67.15
2022-11-04T20:31:36.460Z,67.01
2022-11-04T20:34:08.270Z,67.50
2022-11-04T20:36:38.137Z,67.49
2022-11-04T20:39:17.369Z,67.85
2022-11-04T20:41:45.513Z,67.73
2022-11-04T20:44:13.963Z,67.51
2022-11-04T20:46:42.179Z,67.50
2022-11-04T20:49:09.184Z,67.76
2022-11-04T20:51:38.868Z,67.81
2022-11-04T20:54:07.407Z,67.89
2022-11-04T20:56:37.337Z,67.96
2022-11-04T20:59:06.400Z,67.83
2022-11-04T21:01:39.654Z,68.02
2022-11-04T21:04:11.814Z,68.09
2022-11-04T21:06:39.545Z,68.25
2022-11-04T21:09:10.051Z,68.18
2022-11-04T21:11:39.278Z,68.35
2022-11-04T21:14:08.263Z,68.21
2022-11-04T21:16:36.003Z,68.18
2022-11-04T21:19:03.693Z,68.11
2022-11-04T21:21:30.798Z,68.12
2022-11-04T21:24:02.284Z,68.52
2022-11-04T21:26:32.456Z,68.55
2022-11-04T21:29:01.899Z,68.46
2022-11-04T21:31:31.253Z,68.74
2022-11-04T21:33:58.572Z,68.26
2022-11-04T21:36:26.415Z,68.42
2022-11-04T21:38:53.414Z,68.03
2022-11-04T21:41:24.666Z,68.10
2022-11-04T21:44:03.307Z,68.15
2022-11-04T21:46:34.176Z,68.13
2022-11-04T21:49:01.659Z,68.08
2022-11-04T21:51:31.125Z,68.41
2022-11-04T21:53:59.614Z,68.27
2022-11-04T21:56:29.244Z,68.57
2022-11-04T21:58:56.916Z,69.11
2022-11-04T22:01:26.582Z,68.52
2022-11-04T22:03:59.988Z,68.29
2022-11-04T22:06:33.985Z,68.30
2022-11-04T22:09:03.660Z,68.09
2022-11-04T22:11:33.277Z,67.93
2022-11-04T22:14:02.447Z,68.26
2022-11-04T22:16:32.589Z,67.60
2022-11-04T22:19:02.196Z,68.10
2022-11-04T22:21:30.670Z,67.60
2022-11-04T22:23:58.659Z,68.12
2022-11-04T22:26:31.593Z,67.90
2022-11-04T22:28:59.524Z,67.82
2022-11-04T22:31:35.121Z,67.84
2022-11-04T22:34:02.320Z,67.67
2022-11-04T22:36:30.619Z,67.92
2022-11-04T22:38:58.519Z,67.62
2022-11-04T22:41:30.620Z,67.62
2022-11-04T22:43:58.344Z,67.66
2022-11-04T22:46:30.780Z,67.72
2022-11-04T22:48:59.836Z,67.77
2022-11-04T22:51:27.185Z,67.48
2022-11-04T22:54:00.061Z,67.70
2022-11-04T22:56:30.782Z,67.84
2022-11-04T22:58:58.271Z,67.69
2022-11-04T23:01:26.317Z,67.49
2022-11-04T23:03:53.886Z,67.71
2022-11-04T23:06:21.379Z,67.41
2022-11-04T23:08:48.586Z,67.53
2022-11-04T23:11:40.032Z,67.50
2022-11-04T23:14:25.824Z,67.51
2022-11-04T23:17:11.546Z,67.55
2022-11-04T23:19:39.241Z,67.60
2022-11-04T23:22:25.435Z,67.31
2022-11-04T23:25:10.157Z,67.26
2022-11-04T23:28:05.036Z,67.58
2022-11-04T23:30:39.004Z,67.66
2022-11-04T23:33:10.683Z,67.51
2022-11-04T23:35:59.284Z,67.48
2022-11-04T23:38:27.191Z,67.47
2022-11-04T23:41:18.490Z,67.25
2022-11-04T23:43:45.480Z,67.35
2022-11-04T23:46:31.424Z,67.50
2022-11-04T23:49:07.567Z,67.37
2022-11-04T23:51:53.252Z,67.60
2022-11-04T23:54:39.361Z,67.58
2022-11-04T23:57:31.855Z,67.27
